sensor_id;sensor_type;location;lat;lon;timestamp;P1;durP1;ratioP1;P2;durP2;ratioP2
14282;SDS011;7225;59.282;18.344;2022-10-16T00:01:43;25.17;;;15.23;;
14282;SDS011;7225;59.282;18.344;2022-10-16T00:04:12;22.90;;;15.00;;
14282;SDS011;7225;59.282;18.344;2022-10-16T00:06:40;23.20;;;16.03;;
14282;SDS011;7225;59.282;18.344;2022-10-16T00:09:07;18.83;;;13.43;;
14282;SDS011;7225;59.282;18.344;2022-10-16T00:11:37;19.83;;;13.40;;
14282;SDS011;7225;59.282;18.344;2022-10-16T00:14:07;19.63;;;13.13;;
14282;SDS011;7225;59.282;18.344;2022-10-16T00:16:38;22.70;;;12.93;;
14282;SDS011;7225;59.282;18.344;2022-10-16T00:19:05;18.13;;;10.73;;
14282;SDS011;7225;59.282;18.344;2022-10-16T00:21:34;16.80;;;11.20;;
14282;SDS011;7225;59.282;18.344;2022-10-16T00:24:04;18.80;;;12.37;;
14282;SDS011;7225;59.282;18.344;2022-10-16T00:26:34;18.53;;;12.83;;
14282;SDS011;7225;59.282;18.344;2022-10-16T00:29:03;19.07;;;12.70;;
14282;SDS011;7225;59.282;18.344;2022-10-16T00:31:31;19.83;;;14.23;;
14282;SDS011;7225;59.282;18.344;2022-10-16T00:34:00;21.07;;;13.00;;
14282;SDS011;7225;59.282;18.344;2022-10-16T00:36:29;22.50;;;13.37;;
14282;SDS011;7225;59.282;18.344;2022-10-16T00:38:57;18.60;;;12.53;;
14282;SDS011;7225;59.282;18.344;2022-10-16T00:41:32;20.60;;;14.00;;
14282;SDS011;7225;59.282;18.344;2022-10-16T00:44:03;17.57;;;11.90;;
14282;SDS011;7225;59.282;18.344;2022-10-16T00:46:51;16.83;;;12.10;;
14282;SDS011;7225;59.282;18.344;2022-10-16T00:49:19;18.97;;;12.13;;
14282;SDS011;7225;59.282;18.344;2022-10-16T00:51:49;20.13;;;13.43;;
14282;SDS011;7225;59.282;18.344;2022-10-16T00:54:27;22.23;;;13.23;;
14282;SDS011;7225;59.282;18.344;2022-10-16T00:56:59;19.93;;;12.30;;
14282;SDS011;7225;59.282;18.344;2022-10-16T00:59:30;16.27;;;12.67;;
14282;SDS011;7225;59.282;18.344;2022-10-16T01:02:04;17.73;;;12.97;;
14282;SDS011;7225;59.282;18.344;2022-10-16T01:04:41;19.70;;;13.20;;
14282;SDS011;7225;59.282;18.344;2022-10-16T01:10:20;18.13;;;13.33;;
14282;SDS011;7225;59.282;18.344;2022-10-16T01:13:09;20.70;;;12.77;;
14282;SDS011;7225;59.282;18.344;2022-10-16T01:18:36;19.20;;;12.53;;
14282;SDS011;7225;59.282;18.344;2022-10-16T01:21:20;15.20;;;11.77;;
14282;SDS011;7225;59.282;18.344;2022-10-16T01:29:29;16.13;;;11.87;;
14282;SDS011;7225;59.282;18.344;2022-10-16T01:32:10;17.20;;;11.70;;
14282;SDS011;7225;59.282;18.344;2022-10-16T01:34:55;18.00;;;12.70;;
14282;SDS011;7225;59.282;18.344;2022-10-16T01:40:09;16.27;;;12.23;;
14282;SDS011;7225;59.282;18.344;2022-10-16T01:42:41;21.23;;;12.37;;
14282;SDS011;7225;59.282;18.344;2022-10-16T01:45:12;18.43;;;12.03;;
14282;SDS011;7225;59.282;18.344;2022-10-16T01:47:42;18.30;;;12.80;;
14282;SDS011;7225;59.282;18.344;2022-10-16T01:50:11;16.97;;;11.40;;
14282;SDS011;7225;59.282;18.344;2022-10-16T01:52:43;20.53;;;13.67;;
14282;SDS011;7225;59.282;18.344;2022-10-16T01:55:15;17.30;;;12.23;;
14282;SDS011;7225;59.282;18.344;2022-10-16T01:57:47;21.60;;;12.93;;
14282;SDS011;7225;59.282;18.344;2022-10-16T02:00:19;19.10;;;12.40;;
14282;SDS011;7225;59.282;18.344;2022-10-16T02:02:51;18.43;;;13.53;;
14282;SDS011;7225;59.282;18.344;2022-10-16T02:05:25;22.13;;;12.70;;
14282;SDS011;7225;59.282;18.344;2022-10-16T02:08:10;18.97;;;12.40;;
14282;SDS011;7225;59.282;18.344;2022-10-16T02:10:39;17.53;;;12.63;;
14282;SDS011;7225;59.282;18.344;2022-10-16T02:13:12;20.40;;;12.27;;
14282;SDS011;7225;59.282;18.344;2022-10-16T02:15:51;18.23;;;12.17;;
14282;SDS011;7225;59.282;18.344;2022-10-16T02:18:19;18.23;;;12.60;;
14282;SDS011;7225;59.282;18.344;2022-10-16T02:20:57;23.53;;;13.33;;
14282;SDS011;7225;59.282;18.344;2022-10-16T02:26:24;20.43;;;11.63;;
14282;SDS011;7225;59.282;18.344;2022-10-16T02:28:58;16.33;;;11.63;;
14282;SDS011;7225;59.282;18.344;2022-10-16T02:31:32;15.83;;;11.47;;
14282;SDS011;7225;59.282;18.344;2022-10-16T02:34:06;14.77;;;10.50;;
14282;SDS011;7225;59.282;18.344;2022-10-16T02:36:36;17.60;;;11.03;;
14282;SDS011;7225;59.282;18.344;2022-10-16T02:39:05;17.23;;;11.13;;
14282;SDS011;7225;59.282;18.344;2022-10-16T02:41:33;17.43;;;11.73;;
14282;SDS011;7225;59.282;18.344;2022-10-16T02:44:01;14.10;;;10.90;;
14282;SDS011;7225;59.282;18.344;2022-10-16T02:46:30;13.30;;;10.13;;
14282;SDS011;7225;59.282;18.344;2022-10-16T02:48:58;13.00;;;10.10;;
14282;SDS011;7225;59.282;18.344;2022-10-16T02:51:25;15.33;;;10.50;;
14282;SDS011;7225;59.282;18.344;2022-10-16T02:53:52;12.57;;;9.67;;
14282;SDS011;7225;59.282;18.344;2022-10-16T02:56:21;12.97;;;9.53;;
14282;SDS011;7225;59.282;18.344;2022-10-16T02:58:48;12.70;;;9.67;;
14282;SDS011;7225;59.282;18.344;2022-10-16T03:01:15;12.03;;;9.33;;
14282;SDS011;7225;59.282;18.344;2022-10-16T03:03:46;11.00;;;8.43;;
14282;SDS011;7225;59.282;18.344;2022-10-16T03:06:15;11.80;;;9.33;;
14282;SDS011;7225;59.282;18.344;2022-10-16T03:08:45;13.17;;;10.00;;
14282;SDS011;7225;59.282;18.344;2022-10-16T03:11:13;11.27;;;8.93;;
14282;SDS011;7225;59.282;18.344;2022-10-16T03:13:42;11.80;;;8.67;;
14282;SDS011;7225;59.282;18.344;2022-10-16T03:16:09;13.63;;;9.73;;
14282;SDS011;7225;59.282;18.344;2022-10-16T03:18:38;10.50;;;8.70;;
14282;SDS011;7225;59.282;18.344;2022-10-16T03:21:08;13.67;;;8.30;;
14282;SDS011;7225;59.282;18.344;2022-10-16T03:23:36;9.23;;;7.53;;
14282;SDS011;7225;59.282;18.344;2022-10-16T03:26:04;10.33;;;7.93;;
14282;SDS011;7225;59.282;18.344;2022-10-16T03:28:32;9.60;;;7.80;;
14282;SDS011;7225;59.282;18.344;2022-10-16T03:30:59;10.40;;;7.53;;
14282;SDS011;7225;59.282;18.344;2022-10-16T03:33:25;10.17;;;8.30;;
14282;SDS011;7225;59.282;18.344;2022-10-16T03:35:53;12.13;;;8.13;;
14282;SDS011;7225;59.282;18.344;2022-10-16T03:38:21;9.77;;;7.20;;
14282;SDS011;7225;59.282;18.344;2022-10-16T03:40:50;12.53;;;7.60;;
14282;SDS011;7225;59.282;18.344;2022-10-16T03:43:19;10.27;;;8.07;;
14282;SDS011;7225;59.282;18.344;2022-10-16T03:45:47;11.83;;;7.40;;
14282;SDS011;7225;59.282;18.344;2022-10-16T03:48:16;8.37;;;7.47;;
14282;SDS011;7225;59.282;18.344;2022-10-16T03:50:44;9.83;;;7.23;;
14282;SDS011;7225;59.282;18.344;2022-10-16T03:53:13;10.77;;;7.73;;
14282;SDS011;7225;59.282;18.344;2022-10-16T03:55:43;8.67;;;7.30;;
14282;SDS011;7225;59.282;18.344;2022-10-16T03:58:12;10.13;;;6.73;;
14282;SDS011;7225;59.282;18.344;2022-10-16T04:00:43;9.60;;;6.67;;
14282;SDS011;7225;59.282;18.344;2022-10-16T04:03:11;9.30;;;6.77;;
14282;SDS011;7225;59.282;18.344;2022-10-16T04:05:39;7.97;;;6.83;;
14282;SDS011;7225;59.282;18.344;2022-10-16T04:08:07;10.53;;;7.03;;
14282;SDS011;7225;59.282;18.344;2022-10-16T04:10:35;7.17;;;6.17;;
14282;SDS011;7225;59.282;18.344;2022-10-16T04:13:04;8.33;;;6.70;;
14282;SDS011;7225;59.282;18.344;2022-10-16T04:15:33;8.57;;;6.33;;
14282;SDS011;7225;59.282;18.344;2022-10-16T04:18:03;7.73;;;6.10;;
14282;SDS011;7225;59.282;18.344;2022-10-16T04:20:31;8.23;;;6.63;;
14282;SDS011;7225;59.282;18.344;2022-10-16T04:22:59;6.93;;;6.23;;
14282;SDS011;7225;59.282;18.344;2022-10-16T04:25:28;6.57;;;5.83;;
14282;SDS011;7225;59.282;18.344;2022-10-16T04:27:55;8.13;;;6.20;;
14282;SDS011;7225;59.282;18.344;2022-10-16T04:30:23;8.80;;;6.07;;
14282;SDS011;7225;59.282;18.344;2022-10-16T04:32:51;9.03;;;6.40;;
14282;SDS011;7225;59.282;18.344;2022-10-16T04:35:19;7.10;;;5.03;;
14282;SDS011;7225;59.282;18.344;2022-10-16T04:37:48;6.87;;;5.57;;
14282;SDS011;7225;59.282;18.344;2022-10-16T04:40:17;6.17;;;5.53;;
14282;SDS011;7225;59.282;18.344;2022-10-16T04:42:45;11.40;;;5.83;;
14282;SDS011;7225;59.282;18.344;2022-10-16T04:45:14;6.07;;;4.93;;
14282;SDS011;7225;59.282;18.344;2022-10-16T04:47:43;10.73;;;5.37;;
14282;SDS011;7225;59.282;18.344;2022-10-16T04:50:11;5.93;;;5.33;;
14282;SDS011;7225;59.282;18.344;2022-10-16T04:52:40;6.50;;;4.77;;
14282;SDS011;7225;59.282;18.344;2022-10-16T04:55:07;6.10;;;5.13;;
14282;SDS011;7225;59.282;18.344;2022-10-16T04:57:34;5.67;;;5.07;;
14282;SDS011;7225;59.282;18.344;2022-10-16T05:00:02;7.83;;;5.60;;
14282;SDS011;7225;59.282;18.344;2022-10-16T05:02:31;8.07;;;5.50;;
14282;SDS011;7225;59.282;18.344;2022-10-16T05:04:58;7.77;;;5.23;;
14282;SDS011;7225;59.282;18.344;2022-10-16T05:07:26;6.20;;;5.00;;
14282;SDS011;7225;59.282;18.344;2022-10-16T05:09:54;9.07;;;5.27;;
14282;SDS011;7225;59.282;18.344;2022-10-16T05:12:22;10.43;;;4.90;;
14282;SDS011;7225;59.282;18.344;2022-10-16T05:14:49;6.77;;;4.80;;
14282;SDS011;7225;59.282;18.344;2022-10-16T05:17:17;7.63;;;5.70;;
14282;SDS011;7225;59.282;18.344;2022-10-16T05:19:50;5.43;;;4.93;;
14282;SDS011;7225;59.282;18.344;2022-10-16T05:22:20;8.83;;;5.60;;
14282;SDS011;7225;59.282;18.344;2022-10-16T05:24:48;7.13;;;6.00;;
14282;SDS011;7225;59.282;18.344;2022-10-16T05:27:16;7.03;;;5.40;;
14282;SDS011;7225;59.282;18.344;2022-10-16T05:29:46;6.67;;;5.97;;
14282;SDS011;7225;59.282;18.344;2022-10-16T05:32:15;6.73;;;5.53;;
14282;SDS011;7225;59.282;18.344;2022-10-16T05:34:43;9.53;;;5.50;;
14282;SDS011;7225;59.282;18.344;2022-10-16T05:37:11;6.53;;;5.83;;
14282;SDS011;7225;59.282;18.344;2022-10-16T05:39:39;9.60;;;6.03;;
14282;SDS011;7225;59.282;18.344;2022-10-16T05:42:07;9.43;;;6.43;;
14282;SDS011;7225;59.282;18.344;2022-10-16T05:44:35;8.57;;;6.47;;
14282;SDS011;7225;59.282;18.344;2022-10-16T05:47:02;11.70;;;6.57;;
14282;SDS011;7225;59.282;18.344;2022-10-16T05:49:30;12.43;;;7.03;;
14282;SDS011;7225;59.282;18.344;2022-10-16T05:51:57;10.13;;;7.80;;
14282;SDS011;7225;59.282;18.344;2022-10-16T05:54:25;10.50;;;7.43;;
14282;SDS011;7225;59.282;18.344;2022-10-16T05:56:53;10.63;;;7.37;;
14282;SDS011;7225;59.282;18.344;2022-10-16T05:59:21;10.80;;;6.80;;
14282;SDS011;7225;59.282;18.344;2022-10-16T06:01:48;14.30;;;8.80;;
14282;SDS011;7225;59.282;18.344;2022-10-16T06:04:16;11.53;;;9.10;;
14282;SDS011;7225;59.282;18.344;2022-10-16T06:06:44;14.47;;;11.50;;
14282;SDS011;7225;59.282;18.344;2022-10-16T06:09:13;17.70;;;10.53;;
14282;SDS011;7225;59.282;18.344;2022-10-16T06:11:41;15.17;;;10.27;;
14282;SDS011;7225;59.282;18.344;2022-10-16T06:14:10;17.77;;;11.43;;
14282;SDS011;7225;59.282;18.344;2022-10-16T06:16:38;17.37;;;12.13;;
14282;SDS011;7225;59.282;18.344;2022-10-16T06:19:07;16.40;;;11.30;;
14282;SDS011;7225;59.282;18.344;2022-10-16T06:21:36;17.40;;;12.73;;
14282;SDS011;7225;59.282;18.344;2022-10-16T06:24:05;19.73;;;12.93;;
14282;SDS011;7225;59.282;18.344;2022-10-16T06:26:33;17.13;;;12.77;;
14282;SDS011;7225;59.282;18.344;2022-10-16T06:29:01;19.40;;;12.73;;
14282;SDS011;7225;59.282;18.344;2022-10-16T06:31:29;15.03;;;10.07;;
14282;SDS011;7225;59.282;18.344;2022-10-16T06:34:01;18.63;;;12.27;;
14282;SDS011;7225;59.282;18.344;2022-10-16T06:36:32;20.27;;;12.93;;
14282;SDS011;7225;59.282;18.344;2022-10-16T06:39:00;16.57;;;11.57;;
14282;SDS011;7225;59.282;18.344;2022-10-16T06:41:29;18.63;;;13.00;;
14282;SDS011;7225;59.282;18.344;2022-10-16T06:43:57;17.13;;;12.07;;
14282;SDS011;7225;59.282;18.344;2022-10-16T06:46:27;15.93;;;12.00;;
14282;SDS011;7225;59.282;18.344;2022-10-16T06:48:54;17.77;;;11.27;;
14282;SDS011;7225;59.282;18.344;2022-10-16T06:51:24;15.00;;;11.83;;
14282;SDS011;7225;59.282;18.344;2022-10-16T06:53:53;16.93;;;11.50;;
14282;SDS011;7225;59.282;18.344;2022-10-16T06:56:31;18.60;;;11.77;;
14282;SDS011;7225;59.282;18.344;2022-10-16T06:59:00;18.37;;;12.83;;
14282;SDS011;7225;59.282;18.344;2022-10-16T07:01:30;19.33;;;12.70;;
14282;SDS011;7225;59.282;18.344;2022-10-16T07:03:59;18.07;;;12.47;;
14282;SDS011;7225;59.282;18.344;2022-10-16T07:06:30;19.27;;;13.27;;
14282;SDS011;7225;59.282;18.344;2022-10-16T07:09:01;22.03;;;13.97;;
14282;SDS011;7225;59.282;18.344;2022-10-16T07:11:32;19.57;;;12.87;;
14282;SDS011;7225;59.282;18.344;2022-10-16T07:14:01;22.17;;;13.47;;
14282;SDS011;7225;59.282;18.344;2022-10-16T07:16:32;21.40;;;13.93;;
14282;SDS011;7225;59.282;18.344;2022-10-16T07:19:01;21.67;;;13.50;;
14282;SDS011;7225;59.282;18.344;2022-10-16T07:21:30;20.63;;;13.37;;
14282;SDS011;7225;59.282;18.344;2022-10-16T07:24:04;22.00;;;13.70;;
14282;SDS011;7225;59.282;18.344;2022-10-16T07:26:35;20.23;;;13.17;;
14282;SDS011;7225;59.282;18.344;2022-10-16T07:29:07;23.87;;;14.43;;
14282;SDS011;7225;59.282;18.344;2022-10-16T07:31:42;19.20;;;12.03;;
14282;SDS011;7225;59.282;18.344;2022-10-16T07:34:13;20.10;;;13.50;;
14282;SDS011;7225;59.282;18.344;2022-10-16T07:36:42;19.97;;;12.97;;
14282;SDS011;7225;59.282;18.344;2022-10-16T07:39:10;18.20;;;12.83;;
14282;SDS011;7225;59.282;18.344;2022-10-16T07:41:37;17.33;;;12.03;;
14282;SDS011;7225;59.282;18.344;2022-10-16T07:44:06;17.90;;;12.33;;
14282;SDS011;7225;59.282;18.344;2022-10-16T07:46:34;18.63;;;11.90;;
14282;SDS011;7225;59.282;18.344;2022-10-16T07:49:03;17.47;;;11.93;;
14282;SDS011;7225;59.282;18.344;2022-10-16T07:51:30;14.00;;;11.27;;
14282;SDS011;7225;59.282;18.344;2022-10-16T07:53:59;15.73;;;11.07;;
14282;SDS011;7225;59.282;18.344;2022-10-16T07:56:27;15.83;;;10.77;;
14282;SDS011;7225;59.282;18.344;2022-10-16T07:58:53;14.50;;;10.43;;
14282;SDS011;7225;59.282;18.344;2022-10-16T08:01:25;14.70;;;11.07;;
14282;SDS011;7225;59.282;18.344;2022-10-16T08:03:54;14.53;;;9.80;;
14282;SDS011;7225;59.282;18.344;2022-10-16T08:06:22;13.03;;;9.53;;
14282;SDS011;7225;59.282;18.344;2022-10-16T08:08:54;9.63;;;7.47;;
14282;SDS011;7225;59.282;18.344;2022-10-16T08:11:24;11.00;;;7.37;;
14282;SDS011;7225;59.282;18.344;2022-10-16T08:13:52;12.07;;;7.17;;
14282;SDS011;7225;59.282;18.344;2022-10-16T08:16:20;7.57;;;6.70;;
14282;SDS011;7225;59.282;18.344;2022-10-16T08:18:48;8.37;;;6.40;;
14282;SDS011;7225;59.282;18.344;2022-10-16T08:21:21;6.97;;;5.90;;
14282;SDS011;7225;59.282;18.344;2022-10-16T08:23:52;9.07;;;5.83;;
14282;SDS011;7225;59.282;18.344;2022-10-16T08:26:24;7.27;;;5.53;;
14282;SDS011;7225;59.282;18.344;2022-10-16T08:28:53;8.73;;;5.37;;
14282;SDS011;7225;59.282;18.344;2022-10-16T08:31:23;6.63;;;5.40;;
14282;SDS011;7225;59.282;18.344;2022-10-16T08:33:51;10.13;;;4.87;;
14282;SDS011;7225;59.282;18.344;2022-10-16T08:36:19;7.20;;;5.47;;
14282;SDS011;7225;59.282;18.344;2022-10-16T08:38:47;6.83;;;4.90;;
14282;SDS011;7225;59.282;18.344;2022-10-16T08:41:19;9.40;;;5.20;;
14282;SDS011;7225;59.282;18.344;2022-10-16T08:44:15;7.97;;;5.30;;
14282;SDS011;7225;59.282;18.344;2022-10-16T08:49:35;9.20;;;5.23;;
14282;SDS011;7225;59.282;18.344;2022-10-16T08:52:08;7.60;;;5.00;;
14282;SDS011;7225;59.282;18.344;2022-10-16T08:54:43;6.23;;;5.07;;
14282;SDS011;7225;59.282;18.344;2022-10-16T08:57:20;8.07;;;5.67;;
14282;SDS011;7225;59.282;18.344;2022-10-16T08:59:52;6.77;;;4.87;;
14282;SDS011;7225;59.282;18.344;2022-10-16T09:07:54;6.37;;;4.87;;
14282;SDS011;7225;59.282;18.344;2022-10-16T09:13:28;5.97;;;4.43;;
14282;SDS011;7225;59.282;18.344;2022-10-16T09:21:52;6.30;;;4.63;;
14282;SDS011;7225;59.282;18.344;2022-10-16T09:24:23;6.33;;;4.50;;
14282;SDS011;7225;59.282;18.344;2022-10-16T09:26:56;7.30;;;4.43;;
14282;SDS011;7225;59.282;18.344;2022-10-16T09:29:23;5.43;;;4.43;;
14282;SDS011;7225;59.282;18.344;2022-10-16T09:31:52;7.23;;;3.90;;
14282;SDS011;7225;59.282;18.344;2022-10-16T09:34:25;5.10;;;3.70;;
14282;SDS011;7225;59.282;18.344;2022-10-16T09:36:59;5.37;;;4.27;;
14282;SDS011;7225;59.282;18.344;2022-10-16T09:39:27;5.40;;;4.00;;
14282;SDS011;7225;59.282;18.344;2022-10-16T09:41:54;4.00;;;3.60;;
14282;SDS011;7225;59.282;18.344;2022-10-16T09:44:23;8.13;;;4.00;;
14282;SDS011;7225;59.282;18.344;2022-10-16T09:47:03;7.73;;;3.97;;
14282;SDS011;7225;59.282;18.344;2022-10-16T09:52:33;5.77;;;3.80;;
14282;SDS011;7225;59.282;18.344;2022-10-16T09:55:18;5.33;;;3.77;;
14282;SDS011;7225;59.282;18.344;2022-10-16T09:57:53;8.60;;;4.00;;
14282;SDS011;7225;59.282;18.344;2022-10-16T10:00:22;4.43;;;3.33;;
14282;SDS011;7225;59.282;18.344;2022-10-16T10:02:52;5.30;;;3.57;;
14282;SDS011;7225;59.282;18.344;2022-10-16T10:05:28;6.60;;;4.00;;
14282;SDS011;7225;59.282;18.344;2022-10-16T10:08:03;4.43;;;3.33;;
14282;SDS011;7225;59.282;18.344;2022-10-16T10:10:34;5.00;;;3.33;;
14282;SDS011;7225;59.282;18.344;2022-10-16T10:13:20;5.77;;;3.37;;
14282;SDS011;7225;59.282;18.344;2022-10-16T10:15:52;6.07;;;3.10;;
14282;SDS011;7225;59.282;18.344;2022-10-16T10:18:20;5.67;;;2.80;;
14282;SDS011;7225;59.282;18.344;2022-10-16T10:20:59;3.03;;;2.10;;
14282;SDS011;7225;59.282;18.344;2022-10-16T10:23:29;6.07;;;2.67;;
14282;SDS011;7225;59.282;18.344;2022-10-16T10:29:22;5.93;;;2.20;;
14282;SDS011;7225;59.282;18.344;2022-10-16T10:31:49;4.47;;;2.00;;
14282;SDS011;7225;59.282;18.344;2022-10-16T10:40:00;5.47;;;2.87;;
14282;SDS011;7225;59.282;18.344;2022-10-16T10:46:04;3.77;;;2.30;;
14282;SDS011;7225;59.282;18.344;2022-10-16T10:48:57;6.10;;;2.60;;
14282;SDS011;7225;59.282;18.344;2022-10-16T11:03:30;5.77;;;1.97;;
14282;SDS011;7225;59.282;18.344;2022-10-16T11:06:16;2.47;;;1.93;;
14282;SDS011;7225;59.282;18.344;2022-10-16T11:11:36;6.30;;;2.83;;
14282;SDS011;7225;59.282;18.344;2022-10-16T11:17:01;5.03;;;2.60;;
14282;SDS011;7225;59.282;18.344;2022-10-16T11:19:37;3.70;;;2.57;;
14282;SDS011;7225;59.282;18.344;2022-10-16T11:28:13;5.83;;;2.60;;
14282;SDS011;7225;59.282;18.344;2022-10-16T11:30:52;5.73;;;2.40;;
14282;SDS011;7225;59.282;18.344;2022-10-16T11:36:18;3.87;;;2.70;;
14282;SDS011;7225;59.282;18.344;2022-10-16T11:46:31;6.50;;;3.60;;
14282;SDS011;7225;59.282;18.344;2022-10-16T11:49:22;4.37;;;3.40;;
14282;SDS011;7225;59.282;18.344;2022-10-16T11:52:00;3.63;;;3.30;;
14282;SDS011;7225;59.282;18.344;2022-10-16T11:57:51;5.93;;;3.10;;
14282;SDS011;7225;59.282;18.344;2022-10-16T12:00:24;4.23;;;2.63;;
14282;SDS011;7225;59.282;18.344;2022-10-16T12:05:54;3.77;;;3.20;;
14282;SDS011;7225;59.282;18.344;2022-10-16T12:08:51;3.80;;;2.93;;
14282;SDS011;7225;59.282;18.344;2022-10-16T12:16:59;4.60;;;2.60;;
14282;SDS011;7225;59.282;18.344;2022-10-16T12:19:30;4.00;;;2.90;;
14282;SDS011;7225;59.282;18.344;2022-10-16T12:22:01;6.13;;;3.07;;
14282;SDS011;7225;59.282;18.344;2022-10-16T12:27:17;4.27;;;2.83;;
14282;SDS011;7225;59.282;18.344;2022-10-16T12:29:53;2.97;;;2.30;;
14282;SDS011;7225;59.282;18.344;2022-10-16T12:32:31;5.27;;;2.83;;
14282;SDS011;7225;59.282;18.344;2022-10-16T12:35:17;6.20;;;2.50;;
14282;SDS011;7225;59.282;18.344;2022-10-16T12:38:57;2.57;;;2.30;;
14282;SDS011;7225;59.282;18.344;2022-10-16T12:41:03;5.03;;;2.30;;
14282;SDS011;7225;59.282;18.344;2022-10-16T12:48:41;8.20;;;2.10;;
14282;SDS011;7225;59.282;18.344;2022-10-16T12:51:24;3.67;;;2.03;;
14282;SDS011;7225;59.282;18.344;2022-10-16T12:54:03;2.93;;;2.00;;
14282;SDS011;7225;59.282;18.344;2022-10-16T13:09:01;4.00;;;2.40;;
14282;SDS011;7225;59.282;18.344;2022-10-16T13:26:01;2.97;;;2.17;;
14282;SDS011;7225;59.282;18.344;2022-10-16T13:28:47;3.50;;;1.83;;
14282;SDS011;7225;59.282;18.344;2022-10-16T13:31:17;4.07;;;2.10;;
14282;SDS011;7225;59.282;18.344;2022-10-16T13:33:49;3.27;;;1.77;;
14282;SDS011;7225;59.282;18.344;2022-10-16T13:36:24;4.27;;;2.27;;
14282;SDS011;7225;59.282;18.344;2022-10-16T13:39:10;3.80;;;2.00;;
14282;SDS011;7225;59.282;18.344;2022-10-16T13:42:09;5.23;;;2.07;;
14282;SDS011;7225;59.282;18.344;2022-10-16T13:44:46;3.47;;;2.30;;
14282;SDS011;7225;59.282;18.344;2022-10-16T13:47:22;3.83;;;2.20;;
14282;SDS011;7225;59.282;18.344;2022-10-16T13:50:03;2.77;;;2.00;;
14282;SDS011;7225;59.282;18.344;2022-10-16T13:52:35;3.77;;;2.07;;
14282;SDS011;7225;59.282;18.344;2022-10-16T13:55:02;6.10;;;2.40;;
14282;SDS011;7225;59.282;18.344;2022-10-16T13:57:31;6.13;;;2.47;;
14282;SDS011;7225;59.282;18.344;2022-10-16T13:59:58;3.93;;;2.30;;
14282;SDS011;7225;59.282;18.344;2022-10-16T14:02:28;3.43;;;2.20;;
14282;SDS011;7225;59.282;18.344;2022-10-16T14:05:03;3.67;;;2.07;;
14282;SDS011;7225;59.282;18.344;2022-10-16T14:07:35;4.33;;;2.50;;
14282;SDS011;7225;59.282;18.344;2022-10-16T14:10:04;4.83;;;2.00;;
14282;SDS011;7225;59.282;18.344;2022-10-16T14:12:34;4.00;;;1.67;;
14282;SDS011;7225;59.282;18.344;2022-10-16T14:15:03;4.13;;;1.70;;
14282;SDS011;7225;59.282;18.344;2022-10-16T14:17:32;3.33;;;1.73;;
14282;SDS011;7225;59.282;18.344;2022-10-16T14:20:04;7.10;;;2.00;;
14282;SDS011;7225;59.282;18.344;2022-10-16T14:27:58;3.93;;;2.07;;
14282;SDS011;7225;59.282;18.344;2022-10-16T14:30:32;4.07;;;1.40;;
14282;SDS011;7225;59.282;18.344;2022-10-16T14:33:06;2.67;;;1.60;;
14282;SDS011;7225;59.282;18.344;2022-10-16T14:35:56;2.83;;;1.73;;
14282;SDS011;7225;59.282;18.344;2022-10-16T14:38:31;5.23;;;1.43;;
14282;SDS011;7225;59.282;18.344;2022-10-16T14:41:01;4.57;;;1.63;;
14282;SDS011;7225;59.282;18.344;2022-10-16T14:43:39;4.93;;;1.60;;
14282;SDS011;7225;59.282;18.344;2022-10-16T14:48:48;3.50;;;1.47;;
14282;SDS011;7225;59.282;18.344;2022-10-16T14:51:18;4.20;;;1.60;;
14282;SDS011;7225;59.282;18.344;2022-10-16T14:53:46;2.70;;;1.80;;
14282;SDS011;7225;59.282;18.344;2022-10-16T14:56:16;4.43;;;1.70;;
14282;SDS011;7225;59.282;18.344;2022-10-16T14:58:47;3.67;;;1.60;;
14282;SDS011;7225;59.282;18.344;2022-10-16T15:01:14;2.30;;;1.43;;
14282;SDS011;7225;59.282;18.344;2022-10-16T15:03:43;5.40;;;1.60;;
14282;SDS011;7225;59.282;18.344;2022-10-16T15:06:12;2.60;;;1.73;;
14282;SDS011;7225;59.282;18.344;2022-10-16T15:08:42;4.93;;;2.13;;
14282;SDS011;7225;59.282;18.344;2022-10-16T15:11:14;2.10;;;1.63;;
14282;SDS011;7225;59.282;18.344;2022-10-16T15:13:45;3.00;;;1.90;;
14282;SDS011;7225;59.282;18.344;2022-10-16T15:16:15;5.50;;;1.70;;
14282;SDS011;7225;59.282;18.344;2022-10-16T15:18:43;8.70;;;2.03;;
14282;SDS011;7225;59.282;18.344;2022-10-16T15:21:20;3.17;;;1.70;;
14282;SDS011;7225;59.282;18.344;2022-10-16T15:23:52;5.23;;;1.93;;
14282;SDS011;7225;59.282;18.344;2022-10-16T15:26:20;5.73;;;1.97;;
14282;SDS011;7225;59.282;18.344;2022-10-16T15:28:49;5.87;;;2.10;;
14282;SDS011;7225;59.282;18.344;2022-10-16T15:31:16;3.90;;;1.90;;
14282;SDS011;7225;59.282;18.344;2022-10-16T15:33:44;6.23;;;2.07;;
14282;SDS011;7225;59.282;18.344;2022-10-16T15:36:23;5.07;;;2.17;;
14282;SDS011;7225;59.282;18.344;2022-10-16T15:38:52;7.63;;;2.50;;
14282;SDS011;7225;59.282;18.344;2022-10-16T15:41:20;3.47;;;1.97;;
14282;SDS011;7225;59.282;18.344;2022-10-16T15:43:49;5.63;;;2.50;;
14282;SDS011;7225;59.282;18.344;2022-10-16T15:46:18;2.17;;;1.23;;
14282;SDS011;7225;59.282;18.344;2022-10-16T15:48:51;1.33;;;0.70;;
14282;SDS011;7225;59.282;18.344;2022-10-16T15:51:24;4.07;;;0.83;;
14282;SDS011;7225;59.282;18.344;2022-10-16T15:53:56;4.57;;;1.10;;
14282;SDS011;7225;59.282;18.344;2022-10-16T15:56:25;2.17;;;0.40;;
14282;SDS011;7225;59.282;18.344;2022-10-16T15:58:55;2.97;;;0.63;;
14282;SDS011;7225;59.282;18.344;2022-10-16T16:01:26;5.73;;;2.23;;
14282;SDS011;7225;59.282;18.344;2022-10-16T16:03:56;2.73;;;0.50;;
14282;SDS011;7225;59.282;18.344;2022-10-16T16:06:25;1.67;;;0.50;;
14282;SDS011;7225;59.282;18.344;2022-10-16T16:08:54;7.30;;;1.73;;
14282;SDS011;7225;59.282;18.344;2022-10-16T16:11:25;3.63;;;0.70;;
14282;SDS011;7225;59.282;18.344;2022-10-16T16:13:54;2.40;;;0.70;;
14282;SDS011;7225;59.282;18.344;2022-10-16T16:16:22;1.47;;;0.90;;
14282;SDS011;7225;59.282;18.344;2022-10-16T16:18:52;4.33;;;1.43;;
14282;SDS011;7225;59.282;18.344;2022-10-16T16:21:20;2.73;;;1.30;;
14282;SDS011;7225;59.282;18.344;2022-10-16T16:23:48;3.23;;;0.97;;
14282;SDS011;7225;59.282;18.344;2022-10-16T16:26:26;4.00;;;3.60;;
14282;SDS011;7225;59.282;18.344;2022-10-16T16:29:00;2.73;;;0.77;;
14282;SDS011;7225;59.282;18.344;2022-10-16T16:31:30;2.07;;;0.70;;
14282;SDS011;7225;59.282;18.344;2022-10-16T16:33:59;4.67;;;2.00;;
14282;SDS011;7225;59.282;18.344;2022-10-16T16:36:27;32.43;;;29.43;;
14282;SDS011;7225;59.282;18.344;2022-10-16T16:38:56;3.87;;;2.27;;
14282;SDS011;7225;59.282;18.344;2022-10-16T16:41:26;5.97;;;2.20;;
14282;SDS011;7225;59.282;18.344;2022-10-16T16:43:55;2.40;;;1.53;;
14282;SDS011;7225;59.282;18.344;2022-10-16T16:46:28;10.67;;;7.97;;
14282;SDS011;7225;59.282;18.344;2022-10-16T16:48:57;5.63;;;4.37;;
14282;SDS011;7225;59.282;18.344;2022-10-16T16:51:26;4.93;;;3.23;;
14282;SDS011;7225;59.282;18.344;2022-10-16T16:53:55;3.30;;;2.13;;
14282;SDS011;7225;59.282;18.344;2022-10-16T16:56:24;4.13;;;1.47;;
14282;SDS011;7225;59.282;18.344;2022-10-16T16:58:54;2.73;;;1.43;;
14282;SDS011;7225;59.282;18.344;2022-10-16T17:01:24;2.03;;;1.37;;
14282;SDS011;7225;59.282;18.344;2022-10-16T17:03:53;0.97;;;0.70;;
14282;SDS011;7225;59.282;18.344;2022-10-16T17:06:24;3.07;;;1.40;;
14282;SDS011;7225;59.282;18.344;2022-10-16T17:08:54;1.83;;;1.67;;
14282;SDS011;7225;59.282;18.344;2022-10-16T17:11:25;3.20;;;1.07;;
14282;SDS011;7225;59.282;18.344;2022-10-16T17:13:55;3.30;;;1.00;;
14282;SDS011;7225;59.282;18.344;2022-10-16T17:16:24;2.57;;;0.97;;
14282;SDS011;7225;59.282;18.344;2022-10-16T17:18:52;2.53;;;0.77;;
14282;SDS011;7225;59.282;18.344;2022-10-16T17:21:20;2.00;;;0.80;;